createdAt,value
2018-07-02T00:00:18.145Z,85.05
2018-07-02T00:01:18.574Z,84.77
2018-07-02T00:02:18.119Z,84.67
2018-07-02T00:03:18.094Z,84.96
2018-07-02T00:04:18.085Z,85.34
2018-07-02T00:05:18.128Z,85.44
2018-07-02T00:06:18.077Z,85.63
2018-07-02T00:07:18.068Z,85.05
2018-07-02T00:08:18.081Z,85.34
2018-07-02T00:09:18.049Z,85.44
2018-07-02T00:10:18.684Z,85.49
2018-07-02T00:11:18.040Z,85.53
2018-07-02T00:12:18.029Z,85.39
2018-07-02T00:13:18.033Z,85.82
2018-07-02T00:14:17.755Z,85.58
2018-07-02T00:15:17.740Z,85.97
2018-07-02T00:16:18.046Z,86.16
2018-07-02T00:17:18.036Z,86.16
2018-07-02T00:18:17.996Z,86.16
2018-07-02T00:19:17.982Z,85.49
2018-07-02T00:20:17.985Z,85.87
2018-07-02T00:21:17.985Z,86.06
2018-07-02T00:22:17.979Z,86.25
2018-07-02T00:23:17.970Z,86.35
2018-07-02T00:24:17.951Z,86.44
2018-07-02T00:25:17.964Z,86.44
2018-07-02T00:26:17.963Z,86.35
2018-07-02T00:27:17.920Z,86.92
2018-07-02T00:28:17.961Z,87.21
2018-07-02T00:29:17.919Z,86.44
2018-07-02T00:30:17.929Z,86.54
2018-07-02T00:31:17.909Z,87.21
2018-07-02T00:32:17.918Z,86.73
2018-07-02T00:33:17.891Z,87.21
2018-07-02T00:34:17.885Z,87.02
2018-07-02T00:35:17.855Z,87.21
2018-07-02T00:36:17.877Z,87.11
2018-07-02T00:37:17.885Z,86.82
2018-07-02T00:38:17.876Z,87.21
2018-07-02T00:39:17.861Z,87.59
2018-07-02T00:40:17.852Z,87.59
2018-07-02T00:41:17.836Z,87.78
2018-07-02T00:42:17.813Z,87.59
2018-07-02T00:43:17.542Z,87.4
2018-07-02T00:44:17.846Z,87.68
2018-07-02T00:45:17.798Z,87.78
2018-07-02T00:46:17.517Z,87.49
2018-07-02T00:47:18.225Z,87.78
2018-07-02T00:48:17.771Z,88.16
2018-07-02T00:49:17.791Z,88.35
2018-07-02T00:50:17.845Z,88.07
2018-07-02T00:51:17.759Z,88.07
2018-07-02T00:52:17.776Z,88.26
2018-07-02T00:53:18.304Z,88.73
2018-07-02T00:54:17.773Z,88.16
2018-07-02T00:55:17.776Z,88.16
2018-07-02T00:56:17.443Z,88.54
2018-07-02T00:57:17.719Z,88.73
2018-07-02T00:58:17.700Z,88.16
2018-07-02T00:59:17.423Z,88.45
2018-07-02T01:00:18.320Z,88.73
2018-07-02T01:01:17.407Z,88.64
2018-07-02T01:02:17.680Z,88.73
2018-07-02T01:03:18.131Z,88.54
2018-07-02T01:04:17.683Z,88.73
2018-07-02T01:05:17.685Z,88.64
2018-07-02T01:06:17.692Z,88.73
2018-07-02T01:07:17.657Z,88.73
2018-07-02T01:08:17.647Z,89.31
2018-07-02T01:09:17.645Z,89.12
2018-07-02T01:10:18.131Z,89.21
2018-07-02T01:11:17.604Z,89.4
2018-07-02T01:12:17.595Z,89.26
2018-07-02T01:13:18.170Z,89.97
2018-07-02T01:14:17.605Z,90.12
2018-07-02T01:15:17.592Z,90.03
2018-07-02T01:16:18.082Z,90.31
2018-07-02T01:17:17.580Z,90.69
2018-07-02T01:18:17.581Z,90.22
2018-07-02T01:19:17.566Z,90.31
2018-07-02T01:20:17.532Z,90.41
2018-07-02T01:21:17.555Z,90.22
2018-07-02T01:22:17.537Z,90.41
2018-07-02T01:23:18.108Z,90.79
2018-07-02T01:24:17.520Z,90.88
2018-07-02T01:25:17.500Z,90.88
2018-07-02T01:26:17.516Z,90.79
2018-07-02T01:27:17.495Z,90.98
2018-07-02T01:28:17.479Z,90.98
2018-07-02T01:29:17.980Z,90.79
2018-07-02T01:30:17.467Z,90.88
2018-07-02T01:31:17.453Z,91.07
2018-07-02T01:32:17.448Z,91.07
2018-07-02T01:33:17.449Z,90.22
2018-07-02T01:34:18.114Z,90.88
2018-07-02T01:35:17.447Z,90.79
2018-07-02T01:36:17.147Z,90.98
2018-07-02T01:37:17.419Z,91.46
2018-07-02T01:38:17.405Z,91.17
2018-07-02T01:39:17.124Z,91.17
2018-07-02T01:40:17.387Z,91.46
2018-07-02T01:41:18.033Z,91.46
2018-07-02T01:42:17.371Z,92.03
2018-07-02T01:43:17.368Z,92.12
2018-07-02T01:44:17.388Z,92.32
2018-07-02T01:45:17.366Z,92.22
2018-07-02T01:46:17.356Z,92.12
2018-07-02T01:47:17.360Z,92.12
2018-07-02T01:48:17.056Z,92.22
2018-07-02T01:49:17.365Z,92.03
2018-07-02T01:50:17.048Z,92.5
2018-07-02T01:51:17.835Z,92.6
2018-07-02T01:52:17.316Z,92.03
2018-07-02T01:53:17.302Z,92.41
2018-07-02T01:54:17.013Z,92.27
2018-07-02T01:55:17.003Z,92.27
2018-07-02T01:56:17.276Z,92.46
2018-07-02T01:57:17.274Z,92.27
2018-07-02T01:58:17.802Z,92.27
2018-07-02T01:59:17.261Z,92.27
2018-07-02T02:00:17.262Z,92.36
2018-07-02T02:01:17.220Z,92.65
2018-07-02T02:02:17.772Z,92.36
2018-07-02T02:03:16.940Z,92.84
2018-07-02T02:04:17.197Z,92.74
2018-07-02T02:05:17.196Z,93.32
2018-07-02T02:06:17.619Z,93.22
2018-07-02T02:07:17.174Z,93.32
2018-07-02T02:08:17.183Z,93.12
2018-07-02T02:09:17.160Z,93.22
2018-07-02T02:10:17.656Z,93.32
2018-07-02T02:11:17.142Z,93.32
2018-07-02T02:12:17.132Z,93.32
2018-07-02T02:13:17.129Z,93.41
2018-07-02T02:14:17.804Z,93.41
2018-07-02T02:15:17.140Z,93.32
2018-07-02T02:16:16.843Z,93.7
2018-07-02T02:17:17.101Z,93.7
2018-07-02T02:18:16.822Z,93.88
2018-07-02T02:19:17.092Z,93.6
2018-07-02T02:20:17.090Z,93.79
2018-07-02T02:21:17.061Z,93.51
2018-07-02T02:22:16.791Z,94.27
2018-07-02T02:23:17.047Z,93.7
2018-07-02T02:24:17.047Z,94.46
2018-07-02T02:25:17.038Z,94.37
2018-07-02T02:26:17.038Z,94.46
2018-07-02T02:27:17.487Z,94.17
2018-07-02T02:28:16.749Z,94.27
2018-07-02T02:29:17.007Z,94.37
2018-07-02T02:30:16.993Z,94.65
2018-07-02T02:31:17.661Z,94.46
2018-07-02T02:32:16.991Z,94.37
2018-07-02T02:33:16.702Z,94.37
2018-07-02T02:34:16.977Z,94.46
2018-07-02T02:35:17.419Z,94.46
2018-07-02T02:36:16.970Z,94.56
2018-07-02T02:37:16.673Z,94.17
2018-07-02T02:38:17.047Z,93.98
2018-07-02T02:39:17.277Z,93.74
2018-07-02T02:40:16.922Z,94.56
2018-07-02T02:41:16.642Z,94.51
2018-07-02T02:42:16.895Z,94.6
2018-07-02T02:43:16.625Z,94.7
2018-07-02T02:44:16.877Z,94.51
2018-07-02T02:45:16.608Z,94.7
2018-07-02T02:46:16.893Z,94.7
2018-07-02T02:47:17.332Z,95.17
2018-07-02T02:48:16.855Z,95.75
2018-07-02T02:49:16.841Z,95.36
2018-07-02T02:50:16.846Z,95.46
2018-07-02T02:51:17.347Z,95.46
2018-07-02T02:52:16.556Z,95.56
2018-07-02T02:53:16.815Z,95.56
2018-07-02T02:54:16.807Z,95.84
2018-07-02T02:55:17.381Z,95.46
2018-07-02T02:56:16.803Z,95.75
2018-07-02T02:57:16.787Z,95.65
2018-07-02T02:58:16.773Z,95.46
2018-07-02T02:59:17.381Z,95.65
2018-07-02T03:00:16.796Z,95.75
2018-07-02T03:01:16.766Z,95.36
2018-07-02T03:02:16.749Z,95.46
2018-07-02T03:03:16.733Z,95.65
2018-07-02T03:04:17.227Z,95.56
2018-07-02T03:05:16.449Z,95.84
2018-07-02T03:06:16.438Z,94.79
2018-07-02T03:07:16.691Z,95.17
2018-07-02T03:08:17.204Z,95.08
2018-07-02T03:09:16.687Z,94.79
2018-07-02T03:10:16.670Z,94.79
2018-07-02T03:11:16.674Z,94.89
2018-07-02T03:12:16.984Z,94.98
2018-07-02T03:13:16.648Z,95.84
2018-07-02T03:14:16.637Z,95.27
2018-07-02T03:15:16.639Z,94.98
2018-07-02T03:16:16.353Z,95.17
2018-07-02T03:17:16.610Z,94.79
2018-07-02T03:18:16.599Z,95.17
2018-07-02T03:19:16.599Z,95.17
2018-07-02T03:20:16.369Z,95.27
2018-07-02T03:21:17.120Z,95.17
2018-07-02T03:22:16.587Z,95.65
2018-07-02T03:23:16.562Z,95.46
2018-07-02T03:24:16.555Z,95.65
2018-07-02T03:25:16.281Z,96.03
2018-07-02T03:26:16.548Z,95.84
2018-07-02T03:27:16.526Z,95.65
2018-07-02T03:28:16.529Z,95.22
2018-07-02T03:29:16.248Z,95.32
2018-07-02T03:30:16.514Z,95.79
2018-07-02T03:31:16.520Z,94.74
2018-07-02T03:32:16.489Z,94.41
2018-07-02T03:33:16.935Z,94.51
2018-07-02T03:34:16.502Z,93.55
2018-07-02T03:35:16.489Z,93.6
2018-07-02T03:36:16.460Z,93.12
2018-07-02T03:37:16.966Z,92.5
2018-07-02T03:38:16.444Z,92.69
2018-07-02T03:39:16.173Z,92.07
2018-07-02T03:40:16.462Z,91.3
2018-07-02T03:41:17.113Z,91.35
2018-07-02T03:42:16.419Z,89.92
2018-07-02T03:43:16.421Z,89.1
2018-07-02T03:44:16.429Z,88.48
2018-07-02T03:45:16.443Z,87.71
2018-07-02T03:46:16.148Z,86.9
2018-07-02T03:47:16.412Z,86.41
2018-07-02T03:48:16.122Z,85.98
2018-07-02T03:49:16.431Z,83.63
2018-07-02T03:50:16.399Z,84.2
2018-07-02T03:51:16.110Z,83.53
2018-07-02T03:52:16.380Z,82.52
2018-07-02T03:53:16.366Z,82.23
2018-07-02T03:54:16.377Z,81.66
2018-07-02T03:55:16.368Z,81.56
2018-07-02T03:56:16.381Z,81.31
2018-07-02T03:57:16.360Z,80.35
2018-07-02T03:58:16.416Z,79.78
2018-07-02T03:59:16.365Z,79.14
2018-07-02T04:00:16.528Z,78.28
2018-07-02T04:01:16.504Z,77.42
2018-07-02T04:02:16.353Z,77.51
2018-07-02T04:03:16.070Z,77.71
2018-07-02T04:04:17.014Z,76.65
2018-07-02T04:05:16.347Z,76.5
2018-07-02T04:06:16.067Z,76.12
2018-07-02T04:07:16.332Z,75.54
2018-07-02T04:08:16.917Z,75.1
2018-07-02T04:09:16.330Z,75.1
2018-07-02T04:10:16.327Z,74.43
2018-07-02T04:11:16.351Z,72.06
2018-07-02T04:12:16.524Z,71.58
2018-07-02T04:13:16.318Z,71.14
2018-07-02T04:14:16.334Z,70.65
2018-07-02T04:15:16.347Z,69.44
2018-07-02T04:16:16.323Z,68.48
2018-07-02T04:17:16.328Z,66.58
2018-07-02T04:18:16.051Z,66.88
2018-07-02T04:19:16.973Z,66.2
2018-07-02T04:20:16.322Z,65.63
2018-07-02T04:21:16.837Z,64.98
2018-07-02T04:22:16.326Z,65.56
2018-07-02T04:23:16.915Z,64.73
2018-07-02T04:24:16.336Z,63.85
2018-07-02T04:25:16.949Z,62.73
2018-07-02T04:26:16.331Z,61.03
2018-07-02T04:27:16.089Z,59.78
2018-07-02T04:28:16.332Z,58.94
2018-07-02T04:29:16.347Z,58.55
2018-07-02T04:30:16.340Z,58.84
2018-07-02T04:31:16.772Z,57.59
2018-07-02T04:32:16.346Z,57.23
2018-07-02T04:33:16.329Z,57.23
2018-07-02T04:34:16.457Z,55.78
2018-07-02T04:35:16.788Z,55.42
2018-07-02T04:36:16.345Z,53.69
2018-07-02T04:37:16.348Z,53.52
2018-07-02T04:38:16.353Z,52.36
2018-07-02T04:39:16.992Z,52.45
2018-07-02T04:40:16.988Z,51.61
2018-07-02T04:41:16.363Z,51.25
2018-07-02T04:42:16.372Z,50.96
2018-07-02T04:43:16.823Z,50.28
2018-07-02T04:44:16.948Z,49.82
2018-07-02T04:45:16.981Z,48.59
2018-07-02T04:46:16.119Z,47.52
2018-07-02T04:47:16.889Z,47.36
2018-07-02T04:48:17.136Z,48.01
2018-07-02T04:49:16.817Z,47.91
2018-07-02T04:50:16.847Z,46.77
2018-07-02T04:51:16.897Z,46.6
2018-07-02T04:52:16.862Z,45.25
2018-07-02T04:53:16.888Z,45.64
2018-07-02T04:54:16.971Z,45.92
2018-07-02T04:55:16.921Z,45.54
2018-07-02T04:56:16.960Z,44.78
2018-07-02T04:57:16.431Z,43.91
2018-07-02T04:58:16.442Z,42.77
2018-07-02T04:59:16.980Z,41.53
2018-07-02T05:00:16.454Z,41.43
2018-07-02T05:01:16.495Z,41.53
2018-07-02T05:02:16.203Z,41.92
2018-07-02T05:03:16.461Z,41.92
2018-07-02T05:04:16.470Z,41.33
2018-07-02T05:05:16.488Z,41.24
2018-07-02T05:06:16.740Z,41.33
2018-07-02T05:07:16.490Z,41.45
2018-07-02T05:08:16.246Z,40.39
2018-07-02T05:09:16.510Z,40.11
2018-07-02T05:10:16.514Z,38.67
2018-07-02T05:11:16.520Z,38.57
2018-07-02T05:12:16.687Z,38.96
2018-07-02T05:13:16.283Z,38.48
2018-07-02T05:14:16.291Z,38.09
2018-07-02T05:15:16.556Z,38.57
2018-07-02T05:16:16.568Z,39.04
2018-07-02T05:17:16.587Z,39.72
2018-07-02T05:18:16.586Z,39.04
2018-07-02T05:19:16.333Z,38.29
2018-07-02T05:20:16.593Z,37.62
2018-07-02T05:21:16.601Z,38.11
2018-07-02T05:22:16.820Z,37.92
2018-07-02T05:23:16.619Z,37.92
2018-07-02T05:24:16.624Z,37.26
2018-07-02T05:25:16.644Z,37.16
2018-07-02T05:26:16.648Z,37.92
2018-07-02T05:27:16.651Z,38.29
2018-07-02T05:28:16.663Z,37.14
2018-07-02T05:29:16.418Z,37.52
2018-07-02T05:30:16.862Z,37.34
2018-07-02T05:31:16.693Z,37.16
2018-07-02T05:32:17.005Z,36.96
2018-07-02T05:33:16.708Z,37.26
2018-07-02T05:34:16.716Z,37.06
2018-07-02T05:35:16.726Z,36.87
2018-07-02T05:36:16.734Z,36.79
2018-07-02T05:37:16.746Z,36
2018-07-02T05:38:16.506Z,36
2018-07-02T05:39:16.761Z,36.12
2018-07-02T05:40:16.774Z,36.63
2018-07-02T05:41:16.781Z,35.08
2018-07-02T05:42:16.539Z,34.52
2018-07-02T05:43:16.802Z,33.46
2018-07-02T05:44:16.813Z,32.91
2018-07-02T05:45:16.825Z,32.62
2018-07-02T05:46:16.586Z,32.32
2018-07-02T05:47:16.841Z,31.56
2018-07-02T05:48:16.854Z,31.38
2018-07-02T05:49:16.881Z,30.49
2018-07-02T05:50:16.875Z,30.88
2018-07-02T05:51:16.634Z,30.3
2018-07-02T05:52:16.643Z,30
2018-07-02T05:53:16.907Z,30.1
2018-07-02T05:54:16.917Z,30.4
2018-07-02T05:55:16.929Z,31.65
2018-07-02T05:56:16.940Z,31.56
2018-07-02T05:57:16.948Z,29.91
2018-07-02T05:58:16.965Z,30.1
2018-07-02T05:59:16.976Z,30.49
2018-07-02T06:00:16.779Z,29.93
2018-07-02T06:01:17.001Z,30.12
2018-07-02T06:02:17.009Z,29.83
2018-07-02T06:03:17.103Z,30.04
2018-07-02T06:04:16.776Z,30.13
2018-07-02T06:05:17.040Z,29.84
2018-07-02T06:06:17.056Z,29.17
2018-07-02T06:07:17.064Z,29.27
2018-07-02T06:08:17.079Z,29.38
2018-07-02T06:09:17.089Z,28.61
2018-07-02T06:10:17.101Z,27.92
2018-07-02T06:11:17.115Z,28.22
2018-07-02T06:12:17.264Z,28.91
2018-07-02T06:13:16.917Z,28.91
2018-07-02T06:14:17.154Z,28.51
2018-07-02T06:15:16.910Z,27.84
2018-07-02T06:16:17.177Z,27.06
2018-07-02T06:17:17.188Z,26.75
2018-07-02T06:18:17.203Z,27.91
2018-07-02T06:19:17.222Z,28.2
2018-07-02T06:20:17.227Z,28
2018-07-02T06:21:17.237Z,27.61
2018-07-02T06:22:16.998Z,28.57
2018-07-02T06:23:17.273Z,29.03
2018-07-02T06:24:17.279Z,29.11
2018-07-02T06:25:17.042Z,30.08
2018-07-02T06:26:17.319Z,30.18
2018-07-02T06:27:17.317Z,29.95
2018-07-02T06:28:17.329Z,30.93
2018-07-02T06:29:17.344Z,31.01
2018-07-02T06:30:17.362Z,31.69
2018-07-02T06:31:17.117Z,32.26
2018-07-02T06:32:17.426Z,31.96
2018-07-02T06:33:17.393Z,31.87
2018-07-02T06:34:17.160Z,31.2
2018-07-02T06:35:17.420Z,31.3
2018-07-02T06:36:17.433Z,31.48
2018-07-02T06:37:17.444Z,32.16
2018-07-02T06:38:17.456Z,32.43
2018-07-02T06:39:17.475Z,32.82
2018-07-02T06:40:17.492Z,33.12
2018-07-02T06:41:17.503Z,32.55
2018-07-02T06:42:17.511Z,31.3
2018-07-02T06:43:17.521Z,31.02
2018-07-02T06:44:17.534Z,30.16
2018-07-02T06:45:17.548Z,29.59
2018-07-02T06:46:17.564Z,29.21
2018-07-02T06:47:17.573Z,28.74
2018-07-02T06:48:17.335Z,27.87
2018-07-02T06:49:17.351Z,27
2018-07-02T06:50:17.629Z,27.2
2018-07-02T06:51:17.631Z,27
2018-07-02T06:52:17.645Z,26.82
2018-07-02T06:53:17.658Z,26.62
2018-07-02T06:54:17.672Z,26.14
2018-07-02T06:55:17.434Z,25.55
2018-07-02T06:56:17.704Z,25.65
2018-07-02T06:57:17.715Z,24.48
2018-07-02T06:58:17.729Z,23.99
2018-07-02T06:59:17.755Z,24.96
2018-07-02T07:00:17.760Z,24.53
2018-07-02T07:01:17.818Z,25.78
2018-07-02T07:02:17.537Z,25.76
2018-07-02T07:03:17.805Z,26.34
2018-07-02T07:04:17.829Z,26.91
2018-07-02T07:05:17.834Z,27.51
2018-07-02T07:06:17.848Z,27.41
2018-07-02T07:07:17.633Z,26.93
2018-07-02T07:08:17.877Z,26.57
2018-07-02T07:09:17.653Z,26.67
2018-07-02T07:10:17.908Z,26.31
2018-07-02T07:11:17.923Z,25.16
2018-07-02T07:12:17.686Z,24.38
2018-07-02T07:13:17.702Z,23.32
2018-07-02T07:14:17.724Z,23.61
2018-07-02T07:15:17.981Z,24.11
2018-07-02T07:16:17.999Z,23.53
2018-07-02T07:17:18.026Z,23.33
2018-07-02T07:18:18.028Z,23.06
2018-07-02T07:19:17.791Z,22.47
2018-07-02T07:20:18.063Z,21.59
2018-07-02T07:21:17.827Z,22.09
2018-07-02T07:22:18.099Z,21.41
2018-07-02T07:23:18.109Z,21.62
2018-07-02T07:24:18.123Z,20.94
2018-07-02T07:25:18.138Z,20.65
2018-07-02T07:26:18.156Z,19.88
2018-07-02T07:27:18.171Z,19.68
2018-07-02T07:28:18.189Z,19.59
2018-07-02T07:29:18.220Z,19.59
2018-07-02T07:30:18.231Z,19.98
2018-07-02T07:31:18.377Z,20.38
2018-07-02T07:32:18.255Z,19.89
2018-07-02T07:33:18.272Z,19.8
2018-07-02T07:34:18.289Z,19.12
2018-07-02T07:35:18.306Z,18.43
2018-07-02T07:36:18.327Z,18.54
2018-07-02T07:37:18.360Z,18.25
2018-07-02T07:38:18.106Z,18.05
2018-07-02T07:39:18.381Z,17.66
2018-07-02T07:40:18.393Z,18.04
2018-07-02T07:41:18.412Z,18.04
2018-07-02T07:42:18.429Z,17.85
2018-07-02T07:43:18.455Z,17.66
2018-07-02T07:44:18.467Z,17.66
2018-07-02T07:45:18.484Z,17.16
2018-07-02T07:46:18.502Z,17.27
2018-07-02T07:47:18.518Z,16.48
2018-07-02T07:48:18.286Z,15.69
2018-07-02T07:49:18.555Z,16.38
2018-07-02T07:50:18.574Z,16.26
2018-07-02T07:51:18.591Z,17.24
2018-07-02T07:52:18.611Z,17.81
2018-07-02T07:53:18.752Z,18.98
2018-07-02T07:54:18.658Z,19.17
2018-07-02T07:55:18.663Z,19.38
2018-07-02T07:56:18.681Z,18.9
2018-07-02T07:57:18.698Z,18.71
2018-07-02T07:58:18.723Z,18.23
2018-07-02T07:59:18.748Z,17.16
2018-07-02T08:00:18.756Z,16.58
2018-07-02T08:01:18.770Z,16.48
2018-07-02T08:02:18.791Z,16.68
2018-07-02T08:03:18.804Z,16.28
2018-07-02T08:04:18.831Z,16.38
2018-07-02T08:05:18.895Z,16.68
2018-07-02T08:06:18.874Z,16.69
2018-07-02T08:07:18.880Z,16
2018-07-02T08:08:18.904Z,15.91
2018-07-02T08:09:18.919Z,15.33
2018-07-02T08:10:18.940Z,15.23
2018-07-02T08:11:18.954Z,15.13
2018-07-02T08:12:18.743Z,15.03
2018-07-02T08:13:18.745Z,15.41
2018-07-02T08:14:18.796Z,15.6
2018-07-02T08:15:19.023Z,16.27
2018-07-02T08:16:19.044Z,17.05
2018-07-02T08:17:19.057Z,17.62
2018-07-02T08:18:19.077Z,18
2018-07-02T08:19:19.162Z,18.48
2018-07-02T08:20:19.115Z,17.5
2018-07-02T08:21:19.132Z,17.6
2018-07-02T08:22:19.147Z,17.02
2018-07-02T08:23:19.173Z,17.6
2018-07-02T08:24:19.185Z,17.88
2018-07-02T08:25:19.204Z,18.17
2018-07-02T08:26:19.222Z,18.16
2018-07-02T08:27:19.356Z,18.74
2018-07-02T08:28:19.000Z,19.32
2018-07-02T08:29:19.283Z,19.79
2018-07-02T08:30:19.036Z,21.14
2018-07-02T08:31:19.051Z,21.61
2018-07-02T08:32:19.333Z,22.19
2018-07-02T08:33:19.556Z,22.85
2018-07-02T08:34:19.365Z,22.95
2018-07-02T08:35:19.363Z,22.84
2018-07-02T08:36:19.381Z,22.55
2018-07-02T08:37:19.395Z,22.92
2018-07-02T08:38:20.678Z,23.49
2018-07-02T08:39:19.823Z,23.66
2018-07-02T08:40:19.181Z,24.73
2018-07-02T08:41:19.190Z,24.99
2018-07-02T08:42:19.454Z,25.09
2018-07-02T08:43:19.470Z,25.67
2018-07-02T08:44:19.477Z,25.95
2018-07-02T08:45:32.217Z,25.56
2018-07-02T08:46:19.503Z,25.65
2018-07-02T08:47:19.509Z,26.04
2018-07-02T08:49:19.529Z,25.07
2018-07-02T08:50:19.548Z,25.56
2018-07-02T08:51:19.555Z,26.32
2018-07-02T08:52:19.565Z,26.79
2018-07-02T08:53:19.575Z,26.5
2018-07-02T08:54:19.586Z,26.79
2018-07-02T08:55:19.607Z,27.56
2018-07-02T08:56:19.369Z,27.66
2018-07-02T08:57:19.619Z,27.36
2018-07-02T08:58:19.804Z,27.75
2018-07-02T08:59:19.640Z,28.32
2018-07-02T09:00:19.670Z,28.61
2018-07-02T09:01:19.676Z,28.7
2018-07-02T09:02:19.690Z,28.7
2018-07-02T09:03:19.689Z,28.79
2018-07-02T09:04:19.690Z,29.36
2018-07-02T09:05:19.715Z,29.83
2018-07-02T09:06:19.725Z,30.1
2018-07-02T09:07:19.715Z,30.58
2018-07-02T09:08:19.740Z,31.07
2018-07-02T09:09:19.743Z,31.44
2018-07-02T09:10:19.738Z,32.12
2018-07-02T09:11:19.760Z,32.59
2018-07-02T09:12:19.754Z,32.49
2018-07-02T09:13:19.780Z,33.05
2018-07-02T09:14:19.768Z,33.72
2018-07-02T09:15:19.794Z,34.58
2018-07-02T09:16:19.798Z,34.86
2018-07-02T09:17:19.803Z,35.24
2018-07-02T09:18:19.863Z,35.71
2018-07-02T09:19:19.841Z,35.8
2018-07-02T09:20:19.864Z,35.98
2018-07-02T09:21:19.910Z,36.46
2018-07-02T09:22:19.814Z,36.75
2018-07-02T09:23:19.812Z,37.04
2018-07-02T09:24:19.818Z,36.94
2018-07-02T09:25:19.810Z,36.46
2018-07-02T09:26:19.829Z,35.78
2018-07-02T09:27:19.826Z,36.85
2018-07-02T09:28:19.842Z,37.13
2018-07-02T09:29:19.571Z,37.41
2018-07-02T09:30:19.838Z,37.41
2018-07-02T09:31:19.842Z,37.6
2018-07-02T09:32:19.673Z,37.21
2018-07-02T09:33:19.844Z,37.6
2018-07-02T09:34:19.819Z,37.98
2018-07-02T09:35:19.850Z,37.6
2018-07-02T09:36:19.839Z,37.6
2018-07-02T09:37:19.864Z,37.41
2018-07-02T09:38:19.821Z,37.52
2018-07-02T09:39:19.597Z,37.04
2018-07-02T09:40:19.823Z,37.04
2018-07-02T09:41:19.846Z,37.23
2018-07-02T09:42:19.824Z,36.07
2018-07-02T09:43:19.841Z,36.55
2018-07-02T09:44:19.833Z,37.04
2018-07-02T09:45:19.828Z,37.43
2018-07-02T09:46:19.829Z,37.21
2018-07-02T09:47:19.823Z,37.5
2018-07-02T09:48:19.875Z,37.41
2018-07-02T09:49:19.574Z,37.12
2018-07-02T09:50:19.835Z,37.23
2018-07-02T09:51:19.831Z,37.13
2018-07-02T09:52:19.887Z,36.94
2018-07-02T09:53:19.839Z,37.13
2018-07-02T09:54:19.825Z,37.33
2018-07-02T09:55:19.574Z,37.23
2018-07-02T09:56:19.929Z,37.23
2018-07-02T09:57:19.574Z,37.25
2018-07-02T09:58:19.573Z,37.35
2018-07-02T09:59:19.825Z,36.96
2018-07-02T10:00:19.825Z,37.54
2018-07-02T10:01:19.840Z,36.87
2018-07-02T10:02:19.853Z,36.11
2018-07-02T10:03:19.838Z,36.59
2018-07-02T10:04:19.826Z,36.11
2018-07-02T10:05:19.825Z,36
2018-07-02T10:06:19.903Z,36.48
2018-07-02T10:07:19.825Z,36.67
2018-07-02T10:08:19.915Z,36.96
2018-07-02T10:09:19.824Z,36.96
2018-07-02T10:10:19.908Z,36.59
2018-07-02T10:11:19.847Z,36.59
2018-07-02T10:12:19.833Z,36.01
2018-07-02T10:13:19.826Z,36.03
2018-07-02T10:14:19.826Z,36.13
2018-07-02T10:15:19.833Z,35.84
2018-07-02T10:16:19.830Z,35.64
2018-07-02T10:17:19.827Z,34.89
2018-07-02T10:18:19.843Z,34.78
2018-07-02T10:19:19.834Z,35.16
2018-07-02T10:20:19.608Z,36.03
2018-07-02T10:21:19.838Z,35.55
2018-07-02T10:22:19.850Z,35.57
2018-07-02T10:23:19.577Z,35.47
2018-07-02T10:24:19.839Z,35.39
2018-07-02T10:25:19.841Z,35.39
2018-07-02T10:26:19.835Z,34.63
2018-07-02T10:27:19.844Z,32.7
2018-07-02T10:28:19.582Z,32.99
2018-07-02T10:29:19.853Z,32.79
2018-07-02T10:30:19.839Z,32.78
2018-07-02T10:31:19.760Z,33.36
2018-07-02T10:32:19.847Z,33.92
2018-07-02T10:33:19.840Z,34.6
2018-07-02T10:34:19.841Z,34.7
2018-07-02T10:35:19.854Z,34.5
2018-07-02T10:36:19.603Z,34.7
2018-07-02T10:37:19.855Z,34.48
2018-07-02T10:38:19.596Z,34.5
2018-07-02T10:39:19.882Z,34.31
2018-07-02T10:40:19.610Z,34.5
2018-07-02T10:41:19.855Z,34.79
2018-07-02T10:42:19.852Z,34.52
2018-07-02T10:43:19.855Z,34.13
2018-07-02T10:44:19.860Z,33.28
2018-07-02T10:45:19.871Z,33.47
2018-07-02T10:46:19.858Z,32.99
2018-07-02T10:47:19.618Z,33.47
2018-07-02T10:48:19.909Z,32.62
2018-07-02T10:49:19.861Z,32.71
2018-07-02T10:50:19.624Z,32.71
2018-07-02T10:51:19.878Z,32.04
2018-07-02T10:52:19.920Z,32.04
2018-07-02T10:53:19.885Z,32.14
2018-07-02T10:54:19.880Z,31.65
2018-07-02T10:55:19.902Z,31.84
2018-07-02T10:56:19.916Z,32.04
2018-07-02T10:57:19.939Z,31.96
2018-07-02T10:58:19.906Z,31.1
2018-07-02T10:59:19.905Z,30.91
2018-07-02T11:00:19.630Z,31.31
2018-07-02T11:01:19.985Z,30.94
2018-07-02T11:02:19.881Z,29.97
2018-07-02T11:03:19.885Z,30.18
2018-07-02T11:04:19.901Z,30.58
2018-07-02T11:05:19.891Z,30.38
2018-07-02T11:06:19.895Z,30.38
2018-07-02T11:07:19.897Z,29.52
2018-07-02T11:08:19.899Z,28.55
2018-07-02T11:09:19.656Z,29.02
2018-07-02T11:10:19.916Z,29.12
2018-07-02T11:11:19.988Z,29.02
2018-07-02T11:12:19.919Z,29.21
2018-07-02T11:13:19.923Z,29.88
2018-07-02T11:14:19.673Z,30.07
2018-07-02T11:15:19.921Z,29.66
2018-07-02T11:16:19.927Z,30.91
2018-07-02T11:17:19.967Z,31.09
2018-07-02T11:18:19.962Z,31.28
2018-07-02T11:19:19.709Z,32.14
2018-07-02T11:20:19.964Z,32.14
2018-07-02T11:21:19.960Z,32.52
2018-07-02T11:22:19.704Z,31.94
2018-07-02T11:23:19.965Z,31.76
2018-07-02T11:24:19.966Z,32.06
2018-07-02T11:25:19.954Z,32.24
2018-07-02T11:26:20.012Z,31.96
2018-07-02T11:27:19.966Z,31.1
2018-07-02T11:28:19.968Z,30.52
2018-07-02T11:29:19.712Z,30.24
2018-07-02T11:30:19.983Z,29.95
2018-07-02T11:31:19.998Z,29.66
2018-07-02T11:32:20.008Z,30.05
2018-07-02T11:33:19.979Z,30.05
2018-07-02T11:34:19.985Z,30.34
2018-07-02T11:35:19.743Z,29.85
2018-07-02T11:36:19.984Z,30.34
2018-07-02T11:37:19.989Z,30.05
2018-07-02T11:38:20.262Z,30.34
2018-07-02T11:39:20.001Z,30.62
2018-07-02T11:40:19.754Z,30.91
2018-07-02T11:41:20.005Z,31.49
2018-07-02T11:42:20.007Z,31.86
2018-07-02T11:43:20.005Z,31.76
2018-07-02T11:44:20.035Z,31.96
2018-07-02T11:45:19.756Z,32.14
2018-07-02T11:46:20.015Z,32.71
2018-07-02T11:47:20.033Z,32.33
2018-07-02T11:48:19.767Z,32.42
2018-07-02T11:49:20.020Z,32.23
2018-07-02T11:50:20.030Z,32.52
2018-07-02T11:51:20.027Z,32.42
2018-07-02T11:52:20.036Z,32.51
2018-07-02T11:53:20.057Z,32.31
2018-07-02T11:54:20.039Z,32.7
2018-07-02T11:55:20.044Z,32.89
2018-07-02T11:56:20.039Z,32.89
2018-07-02T11:57:20.063Z,33.01
2018-07-02T11:58:20.052Z,32.89
2018-07-02T11:59:20.060Z,32.71
2018-07-02T12:00:20.049Z,32.91
2018-07-02T12:01:20.045Z,32.33
2018-07-02T12:02:20.055Z,32.24
2018-07-02T12:03:20.056Z,32.34
2018-07-02T12:04:19.817Z,32.15
2018-07-02T12:05:20.052Z,31.29
2018-07-02T12:06:20.058Z,30.81
2018-07-02T12:07:20.056Z,31.59
2018-07-02T12:08:20.064Z,30.91
2018-07-02T12:09:20.074Z,31.29
2018-07-02T12:10:20.064Z,31.68
2018-07-02T12:11:20.067Z,32.17
2018-07-02T12:12:20.066Z,31.67
2018-07-02T12:13:20.074Z,31.68
2018-07-02T12:14:20.070Z,31.28
2018-07-02T12:15:20.153Z,31.76
2018-07-02T12:16:20.073Z,32.06
2018-07-02T12:17:20.086Z,32.34
2018-07-02T12:18:20.081Z,32.44
2018-07-02T12:19:19.830Z,32.92
2018-07-02T12:20:20.079Z,33.31
2018-07-02T12:21:20.082Z,32.54
2018-07-02T12:22:20.092Z,32.24
2018-07-02T12:23:20.092Z,31.96
2018-07-02T12:24:20.094Z,32.24
2018-07-02T12:25:19.840Z,32.73
2018-07-02T12:26:20.198Z,33.29
2018-07-02T12:27:20.129Z,33.29
2018-07-02T12:28:20.094Z,32.04
2018-07-02T12:29:20.095Z,32.23
2018-07-02T12:30:20.105Z,32.71
2018-07-02T12:31:20.098Z,32.52
2018-07-02T12:32:19.855Z,32.34
2018-07-02T12:33:20.108Z,31.36
2018-07-02T12:34:19.853Z,31.46
2018-07-02T12:35:19.859Z,30.78
2018-07-02T12:36:20.115Z,31.46
2018-07-02T12:37:20.126Z,31.46
2018-07-02T12:38:20.119Z,31.16
2018-07-02T12:39:20.117Z,30.98
2018-07-02T12:40:20.157Z,30.78
2018-07-02T12:41:20.220Z,31.16
2018-07-02T12:42:20.168Z,31.56
2018-07-02T12:43:20.116Z,30.98
2018-07-02T12:44:20.126Z,31.18
2018-07-02T12:45:20.125Z,31.57
2018-07-02T12:46:20.139Z,32.06
2018-07-02T12:47:20.125Z,32.73
2018-07-02T12:48:20.127Z,32.34
2018-07-02T12:49:20.126Z,33.22
2018-07-02T12:50:20.145Z,33.29
2018-07-02T12:51:20.139Z,33.49
2018-07-02T12:52:19.881Z,33.29
2018-07-02T12:53:20.135Z,33.29
2018-07-02T12:54:20.305Z,33.49
2018-07-02T12:55:20.143Z,33.31
2018-07-02T12:56:20.140Z,33.51